Time;durP1;ratioP1;P1;durP2;ratioP2;P2;SDS_P1;SDS_P2;PMS_P1;PMS_P2;Temp;Humidity;BMP_temperature;BMP_pressure;BME280_temperature;BME280_humidity;BME280_pressure;Samples;Min_cycle;Max_cycle;Signal;HPM_P1;HPM_P2
2023/12/03 00:02:05;;;;;;;21.95;8.48;;;;;;;-0.62;68.30;99147.34;4932789;29;20035;-47
2023/12/03 00:04:32;;;;;;;19.95;7.63;;;;;;;-0.52;68.54;99180.56;4903356;29;20047;-46
2023/12/03 00:06:57;;;;;;;20.83;8.52;;;;;;;-0.54;68.43;99186.53;4933706;28;20088;-46
2023/12/03 00:09:23;;;;;;;18.77;8.48;;;;;;;-0.82;68.41;99149.00;4934192;29;20090;-46
2023/12/03 00:11:49;;;;;;;17.77;7.97;;;;;;;-0.66;68.87;99176.28;4947545;29;20423;-48
2023/12/03 00:14:15;;;;;;;20.80;9.27;;;;;;;-0.70;68.74;99166.91;4945977;29;20101;-45
2023/12/03 00:16:41;;;;;;;17.52;7.88;;;;;;;-0.60;68.82;99166.09;4952973;28;20081;-46
2023/12/03 00:19:07;;;;;;;17.95;8.05;;;;;;;-0.46;68.67;99172.06;4935302;29;20511;-46
2023/12/03 00:21:33;;;;;;;22.30;8.55;;;;;;;-0.44;68.37;99160.16;4931952;29;20423;-46
2023/12/03 00:23:59;;;;;;;20.77;8.68;;;;;;;-0.41;68.59;99165.25;4947869;29;20046;-47
2023/12/03 00:26:25;;;;;;;19.55;7.47;;;;;;;-0.37;67.94;99163.56;4948983;28;20035;-45
2023/12/03 00:28:52;;;;;;;19.77;7.88;;;;;;;-0.49;68.20;99154.19;4930428;29;20039;-46
2023/12/03 00:31:18;;;;;;;22.17;7.53;;;;;;;-0.77;68.14;99121.81;4935064;29;20106;-46
2023/12/03 00:33:43;;;;;;;17.17;6.72;;;;;;;-0.63;68.33;99156.69;4945174;29;20047;-47
2023/12/03 00:36:10;;;;;;;22.20;8.93;;;;;;;-0.69;68.49;99151.63;4934706;28;20046;-48
2023/12/03 00:38:35;;;;;;;20.35;8.57;;;;;;;-0.85;68.41;99119.25;4946888;29;20058;-45
2023/12/03 00:41:02;;;;;;;27.00;9.60;;;;;;;-0.58;68.18;99143.97;4937064;28;20047;-47
2023/12/03 00:43:27;;;;;;;20.77;8.52;;;;;;;-0.41;68.12;99165.25;4951616;29;20097;-46
2023/12/03 00:45:53;;;;;;;17.05;7.78;;;;;;;-0.43;67.89;99156.75;4951235;29;20086;-47
2023/12/03 00:48:20;;;;;;;20.65;7.40;;;;;;;-0.37;68.02;99141.44;4952189;28;20047;-46
2023/12/03 00:50:46;;;;;;;18.85;7.57;;;;;;;-0.36;67.76;99132.91;4952383;28;20791;-45
2023/12/03 00:53:12;;;;;;;18.92;7.88;;;;;;;-0.58;67.75;99098.88;4952823;28;20046;-48
2023/12/03 00:55:38;;;;;;;15.93;7.78;;;;;;;-0.26;67.41;99131.22;4935507;28;20031;-47
2023/12/03 00:58:04;;;;;;;17.08;7.00;;;;;;;-0.49;67.43;99100.56;4934747;29;20078;-44
2023/12/03 01:00:30;;;;;;;17.52;7.03;;;;;;;-0.42;67.37;99135.47;4921656;29;20043;-46
2023/12/03 01:02:56;;;;;;;18.75;7.63;;;;;;;-0.60;67.59;99131.19;4948474;29;20387;-47
2023/12/03 01:05:22;;;;;;;19.30;7.38;;;;;;;-1.14;67.93;99047.75;4950801;29;20043;-48
2023/12/03 01:07:47;;;;;;;16.33;7.72;;;;;;;-0.81;68.21;99133.72;4953758;28;20474;-45
2023/12/03 01:10:13;;;;;;;20.02;8.15;;;;;;;-0.81;68.41;99123.50;4934223;29;20514;-47
2023/12/03 01:12:39;;;;;;;20.48;8.23;;;;;;;-0.64;68.44;99128.66;4950645;28;20047;-47
2023/12/03 01:15:05;;;;;;;18.30;7.63;;;;;;;-0.62;68.35;99132.03;4951048;29;20055;-45
2023/12/03 01:17:32;;;;;;;18.52;7.55;;;;;;;-0.54;68.75;99145.69;4957555;28;20035;-49
2023/12/03 01:19:58;;;;;;;13.73;6.93;;;;;;;-0.64;68.23;99146.50;4949902;29;20050;-45
2023/12/03 01:22:24;;;;;;;16.30;6.53;;;;;;;-0.90;68.48;99149.00;4954584;28;20064;-47
2023/12/03 01:24:49;;;;;;;16.48;7.72;;;;;;;-1.07;68.88;99155.75;4938444;29;20031;-45
2023/12/03 01:27:16;;;;;;;16.27;6.85;;;;;;;-1.15;69.61;99154.88;4953602;28;20616;-44
2023/12/03 01:29:42;;;;;;;15.65;7.18;;;;;;;-1.07;69.75;99163.41;4948570;28;20054;-46
2023/12/03 01:32:08;;;;;;;14.13;6.47;;;;;;;-0.88;69.55;99165.16;4938191;29;20046;-47
2023/12/03 01:34:34;;;;;;;22.10;8.98;;;;;;;-0.84;69.20;99156.69;4936077;29;20081;-46
2023/12/03 01:37:00;;;;;;;17.58;8.15;;;;;;;-0.89;69.20;99148.16;4951178;28;20074;-46
2023/12/03 01:39:26;;;;;;;15.52;6.90;;;;;;;-1.12;69.63;99139.56;4939838;29;20471;-47
2023/12/03 01:41:54;;;;;;;16.65;7.15;;;;;;;-1.20;70.00;99152.28;4934660;29;20094;-50
2023/12/03 01:44:20;;;;;;;15.73;6.93;;;;;;;-1.24;69.98;99153.13;4949188;29;20039;-47
2023/12/03 01:46:48;;;;;;;16.55;6.45;;;;;;;-1.23;70.34;99146.34;4942878;28;20070;-51
2023/12/03 01:49:14;;;;;;;17.20;7.03;;;;;;;-1.28;70.19;99153.97;4949611;28;20043;-46
2023/12/03 01:51:41;;;;;;;13.70;5.65;;;;;;;-1.54;70.45;99117.31;4937598;28;20233;-47
2023/12/03 01:54:07;;;;;;;14.98;6.38;;;;;;;-1.44;70.46;99158.13;4920560;29;20570;-46
2023/12/03 01:56:33;;;;;;;14.75;6.55;;;;;;;-1.51;70.61;99163.19;4938567;29;20137;-47
2023/12/03 01:58:58;;;;;;;11.55;5.50;;;;;;;-1.59;70.57;99147.88;4935601;28;20051;-45
2023/12/03 02:01:24;;;;;;;15.95;6.55;;;;;;;-1.63;70.80;99150.41;4948766;29;20050;-48
2023/12/03 02:03:50;;;;;;;15.38;6.50;;;;;;;-1.64;71.22;99138.50;4937842;29;20043;-46
2023/12/03 02:06:16;;;;;;;15.32;5.57;;;;;;;-1.67;71.00;99153.78;4936237;29;20039;-46
2023/12/03 02:08:42;;;;;;;14.63;5.68;;;;;;;-1.71;71.25;99141.00;4935115;29;20039;-46
2023/12/03 02:11:08;;;;;;;13.00;6.07;;;;;;;-1.65;70.98;99149.53;4935940;29;20550;-45
2023/12/03 02:13:39;;;;;;;13.30;6.05;;;;;;;-1.62;71.01;99155.47;4933026;29;20044;-49
2023/12/03 02:16:07;;;;;;;15.95;6.43;;;;;;;-1.58;70.71;99154.69;4932275;29;20150;-47
2023/12/03 02:18:33;;;;;;;13.70;6.07;;;;;;;-1.69;70.83;99153.75;4935390;29;20047;-46
2023/12/03 02:21:19;;;;;;;15.93;6.20;;;;;;;-2.03;71.31;99111.06;4934395;29;20138;-46
2023/12/03 02:23:46;;;;;;;18.17;6.75;;;;;;;-1.76;71.38;99155.41;4919290;29;20044;-46
2023/12/03 02:26:12;;;;;;;14.07;5.78;;;;;;;-1.91;71.18;99118.81;4930564;29;20098;-44
2023/12/03 02:28:38;;;;;;;16.48;6.65;;;;;;;-1.64;70.92;99148.69;4941803;29;20043;-48
2023/12/03 02:31:04;;;;;;;13.30;6.22;;;;;;;-1.55;71.05;99156.38;4948944;29;20047;-46
2023/12/03 02:33:30;;;;;;;15.05;6.47;;;;;;;-1.62;71.14;99160.56;4934492;29;20070;-46
2023/12/03 02:35:56;;;;;;;15.63;6.82;;;;;;;-1.73;71.00;99154.59;4934626;29;20613;-47
2023/12/03 02:38:21;;;;;;;16.88;7.65;;;;;;;-1.73;71.26;99160.50;4949895;28;20059;-44
2023/12/03 02:40:47;;;;;;;15.63;6.57;;;;;;;-1.76;71.18;99152.00;4949762;29;20043;-47
2023/12/03 02:43:13;;;;;;;19.15;7.90;;;;;;;-1.77;71.47;99153.69;4948161;29;20039;-45
2023/12/03 02:45:39;;;;;;;18.05;6.80;;;;;;;-1.68;71.46;99160.56;4928801;29;20387;-51
2023/12/03 02:48:05;;;;;;;11.32;5.18;;;;;;;-1.67;71.58;99153.78;4949008;28;20047;-46
2023/12/03 02:50:31;;;;;;;22.10;8.63;;;;;;;-2.19;71.39;99080.41;4936989;29;20055;-45
2023/12/03 02:52:57;;;;;;;22.58;8.80;;;;;;;-1.80;71.75;99140.97;4948592;28;20463;-46
2023/12/03 02:55:23;;;;;;;26.45;9.70;;;;;;;-1.92;71.72;99099.25;4946949;29;20032;-45
2023/12/03 02:57:49;;;;;;;20.73;9.20;;;;;;;-1.49;71.66;99134.31;4926604;28;20427;-44
2023/12/03 03:00:15;;;;;;;25.17;9.45;;;;;;;-1.36;71.23;99161.56;4936437;29;20043;-46
2023/12/03 03:02:41;;;;;;;22.92;8.63;;;;;;;-1.34;71.48;99161.59;4933780;29;20055;-44
2023/12/03 03:05:07;;;;;;;18.85;8.05;;;;;;;-1.25;71.24;99148.88;4946970;28;20066;-46
2023/12/03 03:07:33;;;;;;;26.80;8.98;;;;;;;-1.51;70.85;99074.84;4947352;28;20511;-48
2023/12/03 03:09:59;;;;;;;24.63;8.98;;;;;;;-1.09;70.81;99130.22;4935271;29;20507;-45
2023/12/03 03:12:25;;;;;;;17.92;8.50;;;;;;;-1.11;70.21;99131.09;4920942;29;20140;-49
2023/12/03 03:14:51;;;;;;;20.45;7.80;;;;;;;-1.21;70.43;99142.09;4935257;29;20522;-47
2023/12/03 03:17:16;;;;;;;21.27;8.05;;;;;;;-1.36;70.26;99155.66;4948771;29;20050;-44
2023/12/03 03:19:43;;;;;;;22.42;8.38;;;;;;;-1.47;70.50;99154.72;4949924;28;20055;-45
2023/12/03 03:22:12;;;;;;;18.98;8.60;;;;;;;-1.41;70.71;99122.47;4914040;29;20053;-44
2023/12/03 03:24:38;;;;;;;;;;;;;;;-1.23;70.79;99125.94;4913534;29;20569;-45
2023/12/03 03:27:05;;;;;;;19.25;8.27;;;;;;;-1.17;70.40;99136.16;4948532;29;19949;-44
2023/12/03 03:29:31;;;;;;;14.88;7.13;;;;;;;-1.39;70.25;99080.00;4950797;28;20091;-44
2023/12/03 03:31:57;;;;;;;20.40;9.00;;;;;;;-1.12;70.13;99108.97;4937211;29;20043;-45
2023/12/03 03:34:23;;;;;;;20.88;8.38;;;;;;;-1.11;70.39;99103.88;4914395;29;20058;-46
2023/12/03 03:36:48;;;;;;;23.25;9.10;;;;;;;-1.03;70.34;99096.22;4930687;29;20142;-46
2023/12/03 03:39:15;;;;;;;23.40;9.93;;;;;;;-0.99;70.07;99087.75;4954364;28;20486;-45
2023/12/03 03:41:41;;;;;;;18.55;7.97;;;;;;;-1.08;69.77;99091.13;4947650;29;20042;-46
2023/12/03 03:44:07;;;;;;;23.55;9.07;;;;;;;-1.24;69.97;99081.72;4918472;29;20039;-46
2023/12/03 03:46:33;;;;;;;20.15;8.32;;;;;;;-1.43;70.09;99046.84;4934065;29;20070;-47
2023/12/03 03:48:59;;;;;;;26.00;9.85;;;;;;;-1.15;69.96;99089.41;4947165;28;20083;-48
2023/12/03 03:51:24;;;;;;;23.75;9.60;;;;;;;-1.15;69.71;99083.47;4947664;28;20046;-45
2023/12/03 03:53:50;;;;;;;19.30;8.20;;;;;;;-1.12;69.78;99073.28;4917225;29;20047;-46
2023/12/03 03:56:17;;;;;;;21.17;8.40;;;;;;;-1.27;69.95;99074.09;4947504;29;20047;-47
2023/12/03 03:58:43;;;;;;;24.42;9.05;;;;;;;-1.36;69.84;99072.34;4948077;28;20131;-44
2023/12/03 04:01:09;;;;;;;26.90;9.27;;;;;;;-1.32;69.96;99065.56;4936187;29;20141;-45
2023/12/03 04:03:36;;;;;;;25.88;9.32;;;;;;;-1.31;69.36;99080.03;4933035;29;20057;-45
2023/12/03 04:06:03;;;;;;;24.10;8.98;;;;;;;-1.26;69.43;99085.13;4934062;29;20078;-44
2023/12/03 04:08:30;;;;;;;27.85;9.68;;;;;;;-1.27;69.30;99091.06;4944153;28;20506;-46
2023/12/03 04:10:56;;;;;;;20.63;8.80;;;;;;;-1.33;69.33;99091.91;4947774;28;20054;-46
2023/12/03 04:13:24;;;;;;;23.02;9.63;;;;;;;-1.31;69.10;99106.34;4946435;28;20098;-45
2023/12/03 04:15:50;;;;;;;24.10;9.23;;;;;;;-1.35;69.09;99108.88;4933198;28;20047;-51
2023/12/03 04:18:16;;;;;;;23.50;9.00;;;;;;;-1.44;69.04;99103.75;4935847;29;20046;-47
2023/12/03 04:20:42;;;;;;;23.90;8.40;;;;;;;-1.42;68.99;99104.63;4956893;28;20529;-46
2023/12/03 04:23:08;;;;;;;20.50;8.98;;;;;;;-1.40;69.07;99102.91;4939156;29;20050;-47
2023/12/03 04:25:34;;;;;;;19.20;8.13;;;;;;;-1.43;68.91;99103.78;4952754;28;20098;-46
2023/12/03 04:28:01;;;;;;;22.15;9.00;;;;;;;-1.56;69.11;99103.69;4951977;29;20062;-45
2023/12/03 04:30:27;;;;;;;22.35;8.65;;;;;;;-1.56;69.13;99102.00;4940341;29;20047;-46
2023/12/03 04:32:53;;;;;;;18.75;8.32;;;;;;;-2.02;68.93;99047.44;4951830;29;20046;-44
2023/12/03 04:35:19;;;;;;;23.77;9.05;;;;;;;-1.72;69.13;99108.72;4919176;29;20059;-45
2023/12/03 04:37:45;;;;;;;21.52;8.73;;;;;;;-1.64;69.29;99106.22;4939500;29;20459;-45
2023/12/03 04:40:11;;;;;;;24.73;9.90;;;;;;;-1.65;69.03;99109.59;4938406;29;20159;-46
2023/12/03 04:42:38;;;;;;;25.60;10.30;;;;;;;-1.70;68.97;99106.19;4951502;28;20054;-44
2023/12/03 04:45:04;;;;;;;25.95;9.10;;;;;;;-1.58;68.79;99108.81;4938643;29;20590;-45
2023/12/03 04:47:32;;;;;;;23.73;9.60;;;;;;;-1.96;68.96;99070.38;4937022;29;20044;-44
2023/12/03 04:49:59;;;;;;;25.75;9.25;;;;;;;-1.95;68.99;99094.16;4940573;29;20577;-45
2023/12/03 04:52:25;;;;;;;23.98;9.02;;;;;;;-1.88;69.33;99104.38;4950762;29;20536;-45
2023/12/03 04:54:51;;;;;;;23.52;9.43;;;;;;;-1.96;69.15;99100.94;4934861;29;20062;-45
2023/12/03 04:57:16;;;;;;;26.75;10.05;;;;;;;-1.98;69.07;99100.06;4950327;29;20537;-46
2023/12/03 04:59:43;;;;;;;22.38;9.35;;;;;;;-1.83;69.26;99091.66;4936078;29;20077;-46
2023/12/03 05:02:09;;;;;;;29.23;11.48;;;;;;;-1.99;69.06;99060.16;4952136;29;22010;-46
2023/12/03 05:04:34;;;;;;;20.83;9.70;;;;;;;-1.92;69.03;99049.19;4951401;29;20043;-46
2023/12/03 05:07:00;;;;;;;21.30;9.07;;;;;;;-1.60;68.83;99096.88;4937387;29;20059;-45
2023/12/03 05:09:27;;;;;;;25.75;9.68;;;;;;;-1.77;68.79;99102.75;4951470;29;20091;-45
2023/12/03 05:11:53;;;;;;;28.35;10.73;;;;;;;-1.92;68.95;99069.56;4933435;29;20070;-47
2023/12/03 05:14:19;;;;;;;26.77;10.23;;;;;;;-1.57;68.69;99104.56;4952421;29;20537;-44
2023/12/03 05:16:45;;;;;;;30.60;10.18;;;;;;;-1.57;68.49;99105.38;4951161;28;20047;-44
2023/12/03 05:19:11;;;;;;;27.90;11.77;;;;;;;-1.56;68.41;99101.16;4953314;29;20043;-44
2023/12/03 05:21:37;;;;;;;27.55;10.25;;;;;;;-1.44;68.29;99106.31;4938646;29;20049;-49
2023/12/03 05:24:04;;;;;;;25.45;10.50;;;;;;;-1.47;68.10;99101.22;4951535;29;20072;-47
2023/12/03 05:26:30;;;;;;;28.67;11.10;;;;;;;-1.51;68.25;99097.78;4950748;28;20046;-46
2023/12/03 05:28:57;;;;;;;24.75;10.25;;;;;;;-1.63;68.20;99069.72;4938343;29;20058;-46
2023/12/03 05:31:23;;;;;;;29.65;10.57;;;;;;;-1.47;68.21;99096.97;4937837;29;20035;-45
2023/12/03 05:33:49;;;;;;;25.08;10.35;;;;;;;-1.60;67.89;99095.19;4949852;29;20047;-47
2023/12/03 05:36:23;;;;;;;22.38;9.35;;;;;;;-1.81;68.43;99095.09;4920598;29;20091;-45
2023/12/03 05:38:51;;;;;;;25.27;9.82;;;;;;;-1.80;68.56;99094.25;4950576;28;20058;-45
2023/12/03 05:41:17;;;;;;;25.88;10.10;;;;;;;-1.68;68.78;99104.50;4950584;28;20039;-45
2023/12/03 05:43:43;;;;;;;26.13;11.25;;;;;;;-1.65;68.41;99094.31;4921641;29;20499;-45
2023/12/03 05:46:09;;;;;;;25.17;10.60;;;;;;;-2.02;68.48;99018.56;4941595;28;20046;-44
2023/12/03 05:48:35;;;;;;;23.95;9.50;;;;;;;-1.87;68.20;99055.13;4950741;28;20051;-45
2023/12/03 05:51:01;;;;;;;24.45;9.55;;;;;;;-1.86;68.28;99061.09;4917105;29;20042;-46
2023/12/03 05:53:27;;;;;;;27.10;9.95;;;;;;;-1.67;68.35;99079.88;4950510;29;20047;-44
2023/12/03 05:55:53;;;;;;;22.17;9.32;;;;;;;-1.89;68.44;99025.44;4950824;28;20422;-46
2023/12/03 05:58:19;;;;;;;24.98;9.15;;;;;;;-1.54;68.05;99076.53;4937366;29;20046;-47
2023/12/03 06:00:45;;;;;;;25.17;10.07;;;;;;;-1.55;67.81;99074.81;4949351;29;20534;-44
2023/12/03 06:03:11;;;;;;;24.50;9.82;;;;;;;-1.86;67.92;99049.22;4947358;28;20091;-47
2023/12/03 06:05:37;;;;;;;26.42;9.50;;;;;;;-1.65;68.12;99081.56;4950580;28;20079;-46
2023/12/03 06:08:02;;;;;;;18.42;7.07;;;;;;;-1.65;68.22;99076.47;4949125;28;20429;-48
2023/12/03 06:10:28;;;;;;;19.90;8.18;;;;;;;-1.73;68.01;99080.72;4933563;29;20043;-48
2023/12/03 06:12:54;;;;;;;22.52;8.80;;;;;;;-1.81;67.89;99082.34;4947103;28;20466;-44
2023/12/03 06:15:20;;;;;;;19.20;8.25;;;;;;;-1.97;67.88;99039.81;4912673;29;20075;-46
2023/12/03 06:17:45;;;;;;;19.35;7.85;;;;;;;-1.72;68.12;99065.41;4934809;29;20418;-46
2023/12/03 06:20:11;;;;;;;23.58;8.50;;;;;;;-1.63;67.96;99066.31;4912698;29;20541;-46
2023/12/03 06:22:37;;;;;;;21.08;8.32;;;;;;;-1.64;68.01;99067.16;4948470;29;20043;-47
2023/12/03 06:25:03;;;;;;;21.58;7.32;;;;;;;-1.66;67.67;99054.38;4932158;29;20042;-46
2023/12/03 06:27:31;;;;;;;20.45;8.65;;;;;;;-1.63;67.63;99048.47;4915728;29;20155;-47
2023/12/03 06:29:57;;;;;;;24.02;9.65;;;;;;;-1.55;67.04;99044.25;4919081;29;20031;-48
2023/12/03 06:32:23;;;;;;;24.02;8.70;;;;;;;-1.59;66.74;99027.25;4932005;29;20042;-44
2023/12/03 06:34:49;;;;;;;20.15;8.40;;;;;;;-1.63;66.46;99016.19;4917056;29;20765;-45
2023/12/03 06:37:15;;;;;;;22.10;8.55;;;;;;;-1.56;66.51;99014.50;4950413;28;20054;-47
2023/12/03 06:39:41;;;;;;;18.00;8.65;;;;;;;-1.50;66.20;99015.38;4949651;28;20039;-46
2023/12/03 06:42:07;;;;;;;29.63;9.82;;;;;;;-1.46;66.46;99006.88;4949422;28;20050;-47
2023/12/03 06:44:33;;;;;;;23.75;10.80;;;;;;;-1.58;65.93;99011.09;4951431;29;20094;-46
2023/12/03 06:47:00;;;;;;;25.02;9.80;;;;;;;-1.56;66.21;99011.94;4950927;28;20038;-48
2023/12/03 06:49:26;;;;;;;23.20;10.35;;;;;;;-1.61;65.89;99006.84;4933613;29;20058;-46
2023/12/03 06:51:52;;;;;;;26.30;10.10;;;;;;;-1.62;65.61;98991.56;4932106;29;20066;-45
2023/12/03 06:54:18;;;;;;;27.35;9.93;;;;;;;-1.55;65.60;99000.91;4949083;29;20043;-47
2023/12/03 06:56:44;;;;;;;25.42;10.13;;;;;;;-1.49;65.51;98994.13;4936512;28;20132;-46
2023/12/03 06:59:10;;;;;;;18.55;8.55;;;;;;;-1.45;65.41;98998.41;4948521;28;20047;-48
2023/12/03 07:01:36;;;;;;;23.67;8.98;;;;;;;-1.71;65.02;98966.88;4949464;29;20050;-46
2023/12/03 07:04:02;;;;;;;24.15;9.15;;;;;;;-1.89;65.07;98957.50;4933448;29;20039;-44
2023/12/03 07:06:28;;;;;;;21.88;8.80;;;;;;;-1.80;64.77;98993.19;4946439;29;20081;-46
2023/12/03 07:08:54;;;;;;;22.15;8.00;;;;;;;-1.78;64.61;99004.22;4930572;29;20047;-47
2023/12/03 07:11:20;;;;;;;27.05;9.98;;;;;;;-2.13;64.36;98952.31;4929889;29;20043;-45
2023/12/03 07:13:47;;;;;;;19.63;8.77;;;;;;;-1.86;64.37;99005.91;4934787;29;20530;-44
2023/12/03 07:16:14;;;;;;;24.10;9.40;;;;;;;-1.96;64.53;99008.41;4933853;29;20430;-51
2023/12/03 07:18:42;;;;;;;24.65;10.43;;;;;;;-2.27;64.16;98982.78;4929541;29;20582;-51
2023/12/03 07:21:08;;;;;;;22.95;9.13;;;;;;;-2.00;64.28;99019.44;4930798;29;20043;-49
2023/12/03 07:23:34;;;;;;;25.20;9.85;;;;;;;-1.97;64.38;99030.47;4934481;29;20062;-53
2023/12/03 07:26:00;;;;;;;22.17;9.27;;;;;;;-2.19;64.45;98990.47;4948755;29;20071;-46
2023/12/03 07:28:26;;;;;;;26.80;9.73;;;;;;;-1.86;64.38;99025.44;4948184;28;20495;-47
2023/12/03 07:30:52;;;;;;;21.92;8.02;;;;;;;-1.84;64.47;99037.34;4948193;29;20106;-48
2023/12/03 07:33:18;;;;;;;28.23;10.35;;;;;;;-1.97;64.50;99050.00;4927466;29;20472;-43
2023/12/03 07:35:44;;;;;;;20.55;9.27;;;;;;;-1.88;64.55;99053.44;4947876;29;20035;-45
2023/12/03 07:38:10;;;;;;;34.17;10.32;;;;;;;-1.79;64.71;99058.59;4947462;28;20039;-44
2023/12/03 07:40:36;;;;;;;26.98;10.13;;;;;;;-1.74;64.42;99067.13;4931914;29;20838;-45
2023/12/03 07:43:02;;;;;;;24.30;9.45;;;;;;;-2.02;64.50;99066.94;4931696;29;20046;-45
2023/12/03 07:45:28;;;;;;;20.80;9.27;;;;;;;-2.09;65.11;99070.31;4905616;29;20032;-44
2023/12/03 07:47:54;;;;;;;26.85;10.57;;;;;;;-2.28;65.46;99061.69;4917266;28;20045;-45
2023/12/03 07:50:20;;;;;;;22.60;10.05;;;;;;;-2.42;66.16;99053.97;4915775;29;20519;-44
2023/12/03 07:52:46;;;;;;;19.33;8.30;;;;;;;-2.45;66.77;99056.47;4931170;29;20049;-50
2023/12/03 07:55:12;;;;;;;25.40;9.98;;;;;;;-2.58;67.15;99054.69;4935426;29;20042;-46
2023/12/03 07:57:38;;;;;;;23.25;10.23;;;;;;;-2.54;67.52;99050.47;4954467;28;20055;-47
2023/12/03 08:00:06;;;;;;;18.33;8.55;;;;;;;-2.38;67.89;99052.28;4922036;29;20538;-44
2023/12/03 08:02:38;;;;;;;18.50;8.63;;;;;;;-2.60;68.02;99011.41;4948311;29;20051;-44
2023/12/03 08:05:04;;;;;;;26.10;10.18;;;;;;;-2.49;68.24;99044.56;4947263;29;20046;-43
2023/12/03 08:07:31;;;;;;;23.65;9.43;;;;;;;-2.32;68.51;99052.34;4931514;29;20043;-44
2023/12/03 08:09:57;;;;;;;25.45;9.55;;;;;;;-2.31;68.40;99046.41;4932697;29;20035;-44
2023/12/03 08:12:23;;;;;;;26.52;10.15;;;;;;;-2.47;68.50;99031.88;4944701;29;20074;-45
2023/12/03 08:14:50;;;;;;;28.60;9.40;;;;;;;-2.36;69.13;99027.72;4914746;29;20078;-45
2023/12/03 08:17:15;;;;;;;28.23;11.15;;;;;;;-2.41;69.23;99003.94;4931215;29;20071;-49
2023/12/03 08:19:41;;;;;;;23.23;9.55;;;;;;;-2.69;69.30;98952.00;4920028;29;20078;-47
2023/12/03 08:22:07;;;;;;;28.45;10.25;;;;;;;-2.35;69.33;98965.75;4939169;29;20050;-44
2023/12/03 08:24:34;;;;;;;29.50;11.30;;;;;;;-2.28;69.74;98958.19;4932574;29;20047;-46
2023/12/03 08:27:01;;;;;;;25.20;9.80;;;;;;;-2.42;69.94;98926.72;4933110;29;20138;-45
2023/12/03 08:29:27;;;;;;;27.73;10.65;;;;;;;-2.18;69.79;98961.63;4943583;28;20153;-45
2023/12/03 08:31:53;;;;;;;22.38;11.10;;;;;;;-2.04;70.19;98969.34;4946641;29;20035;-44
2023/12/03 08:34:19;;;;;;;23.30;10.35;;;;;;;-1.91;70.53;98966.84;4945853;29;20110;-45
2023/12/03 08:36:45;;;;;;;26.15;10.77;;;;;;;-1.97;71.09;98959.16;4935534;29;20050;-45
2023/12/03 08:39:12;;;;;;;21.63;9.57;;;;;;;-1.91;71.06;98963.44;4947056;28;20039;-42
2023/12/03 08:41:41;;;;;;;27.75;11.32;;;;;;;-2.16;71.27;98912.41;4933526;29;20079;-43
2023/12/03 08:44:07;;;;;;;26.75;9.82;;;;;;;-2.03;71.68;98936.22;4953683;28;20129;-47
2023/12/03 08:46:33;;;;;;;27.45;11.00;;;;;;;-2.05;72.22;98939.63;4947042;29;20129;-44
2023/12/03 08:48:59;;;;;;;24.83;10.40;;;;;;;-2.13;72.39;98937.88;4948193;28;20492;-40
2023/12/03 08:51:25;;;;;;;26.70;9.85;;;;;;;-2.13;72.95;98937.03;4930207;29;20487;-46
2023/12/03 08:53:51;;;;;;;26.58;10.55;;;;;;;-2.64;73.10;98849.44;4947724;28;20050;-45
2023/12/03 08:56:17;;;;;;;22.50;10.15;;;;;;;-2.17;73.15;98915.81;4946462;29;20196;-45
2023/12/03 08:58:43;;;;;;;23.48;10.15;;;;;;;-2.36;73.13;98855.50;4947983;28;20047;-57
2023/12/03 09:01:09;;;;;;;25.38;9.77;;;;;;;-2.18;73.18;98890.34;4947101;29;20047;-44
2023/12/03 09:03:37;;;;;;;25.38;10.55;;;;;;;-2.25;73.08;98871.63;4901829;29;20045;-46
2023/12/03 09:06:04;;;;;;;31.77;10.48;;;;;;;-2.20;73.41;98869.13;4951443;29;20042;-44
2023/12/03 09:08:30;;;;;;;23.85;10.25;;;;;;;-2.19;73.31;98858.94;4903368;28;20087;-47
2023/12/03 09:10:56;;;;;;;26.73;10.10;;;;;;;-2.24;73.59;98855.53;4937182;29;20071;-45
2023/12/03 09:13:22;;;;;;;23.23;10.02;;;;;;;-2.27;73.97;98831.75;4935683;29;20047;-44
2023/12/03 09:15:48;;;;;;;28.17;11.18;;;;;;;-2.25;73.98;98832.63;4937848;29;20089;-42
2023/12/03 09:18:15;;;;;;;24.42;9.85;;;;;;;-2.44;74.01;98785.91;4915311;28;20061;-44
2023/12/03 09:20:41;;;;;;;24.48;11.70;;;;;;;-2.18;74.00;98812.25;4907101;28;20043;-44
2023/12/03 09:23:07;;;;;;;23.83;9.68;;;;;;;-2.43;74.15;98764.69;4926284;29;20046;-43
2023/12/03 09:25:33;;;;;;;25.10;9.88;;;;;;;-2.22;74.28;98799.53;4928687;28;20502;-43
2023/12/03 09:27:59;;;;;;;22.40;10.05;;;;;;;-2.22;74.44;98792.75;4935802;28;20043;-43
2023/12/03 09:30:26;;;;;;;22.58;9.55;;;;;;;-2.59;74.57;98725.66;4949411;28;20039;-44
2023/12/03 09:32:52;;;;;;;27.05;10.23;;;;;;;-2.22;74.76;98790.19;4941714;28;20055;-43
2023/12/03 09:35:17;;;;;;;24.13;9.30;;;;;;;-2.21;74.86;98780.88;4938638;29;20109;-44
2023/12/03 09:37:43;;;;;;;25.13;9.02;;;;;;;-2.64;75.12;98711.22;4927503;29;20519;-44
2023/12/03 09:40:10;;;;;;;18.88;8.43;;;;;;;-2.53;75.16;98742.63;4919181;29;20050;-42
2023/12/03 09:42:39;;;;;;;18.63;8.13;;;;;;;-2.19;75.08;98784.25;4937761;29;20043;-42
2023/12/03 09:45:09;;;;;;;23.27;9.48;;;;;;;-2.22;74.91;98772.38;4911757;29;20048;-42
2023/12/03 09:47:36;;;;;;;22.33;9.45;;;;;;;-2.13;74.91;98779.19;4936584;29;20434;-43
2023/12/03 09:50:04;;;;;;;18.60;7.82;;;;;;;-2.14;75.19;98762.19;4931991;29;20110;-41
2023/12/03 09:52:35;;;;;;;20.42;9.10;;;;;;;-2.17;75.37;98759.66;4928874;29;20042;-43
2023/12/03 09:55:02;;;;;;;22.33;8.82;;;;;;;-2.15;75.30;98752.88;4948969;28;20039;-42
2023/12/03 09:57:31;;;;;;;18.48;8.45;;;;;;;-2.11;75.24;98758.81;4934003;29;20078;-43
2023/12/03 10:00:00;;;;;;;19.58;7.22;;;;;;;-2.12;75.36;98750.31;4906312;28;20066;-41
2023/12/03 10:02:28;;;;;;;18.88;8.27;;;;;;;-2.15;75.35;98735.06;4931965;29;20078;-42
2023/12/03 10:04:56;;;;;;;22.58;8.40;;;;;;;-2.20;75.33;98734.22;4926789;29;20050;-43
2023/12/03 10:07:23;;;;;;;22.30;8.23;;;;;;;-2.17;75.60;98740.13;4925757;29;20055;-42
2023/12/03 10:09:49;;;;;;;24.90;9.10;;;;;;;-2.38;75.64;98701.94;4934044;29;20440;-43
2023/12/03 10:12:17;;;;;;;18.02;7.57;;;;;;;-2.33;74.91;98702.78;4916599;29;20066;-43
2023/12/03 10:14:45;;;;;;;15.73;7.25;;;;;;;-2.18;75.68;98735.03;4925273;29;20073;-43
2023/12/03 10:17:20;;;;;;;17.13;7.90;;;;;;;-2.34;75.10;98708.72;4940257;28;20522;-44
2023/12/03 10:19:46;;;;;;;19.00;8.00;;;;;;;-2.33;75.49;98717.22;4946817;28;20039;-42
2023/12/03 10:22:12;;;;;;;18.80;7.43;;;;;;;-2.28;75.47;98725.69;4928454;29;20598;-43
2023/12/03 10:24:46;;;;;;;19.98;8.25;;;;;;;-2.54;75.56;98674.78;4911035;28;20044;-43
2023/12/03 10:27:12;;;;;;;16.15;6.97;;;;;;;-2.22;75.58;98729.09;4930611;29;20043;-43
2023/12/03 10:29:38;;;;;;;17.55;6.57;;;;;;;-2.28;75.65;98710.44;4931895;29;20069;-42
2023/12/03 10:32:07;;;;;;;14.85;5.85;;;;;;;-2.32;75.46;98694.31;4940780;28;20067;-42
2023/12/03 10:34:33;;;;;;;15.35;6.63;;;;;;;-2.24;75.60;98715.50;4935783;29;20217;-42
2023/12/03 10:37:02;;;;;;;20.33;7.65;;;;;;;-2.33;75.89;98707.03;4915776;28;20935;-43
2023/12/03 10:39:30;;;;;;;16.48;6.97;;;;;;;-2.49;75.50;98672.22;4949982;28;20042;-43
2023/12/03 10:41:56;;;;;;;17.88;6.70;;;;;;;-2.25;75.65;98708.72;4918925;29;20051;-43
2023/12/03 10:44:24;;;;;;;14.52;6.72;;;;;;;-2.32;75.34;98696.84;4944094;28;20102;-42
2023/12/03 10:46:51;;;;;;;20.55;8.18;;;;;;;-2.30;75.46;98696.84;4931951;29;20195;-42
2023/12/03 10:49:17;;;;;;;17.23;7.10;;;;;;;-2.50;75.50;98668.84;4917229;29;20071;-42
2023/12/03 10:51:43;;;;;;;15.85;6.28;;;;;;;-2.48;75.43;98649.34;4942499;29;20044;-43
2023/12/03 10:54:13;;;;;;;17.80;6.22;;;;;;;-2.33;75.43;98668.84;4924317;29;20050;-42
2023/12/03 10:56:40;;;;;;;16.70;5.97;;;;;;;-2.70;75.50;98595.03;4947820;28;20126;-42
2023/12/03 10:59:11;;;;;;;15.75;5.68;;;;;;;-2.32;75.54;98678.19;4926060;28;20043;-44
2023/12/03 11:01:47;;;;;;;13.20;5.28;;;;;;;-2.38;75.61;98676.50;4928798;29;20074;-43
2023/12/03 11:04:26;;;;;;;16.83;6.63;;;;;;;-2.39;75.80;98656.13;4933094;29;20134;-43
2023/12/03 11:06:53;;;;;;;12.68;5.82;;;;;;;-2.47;75.60;98645.94;4938762;28;20042;-52
2023/12/03 11:09:20;;;;;;;16.55;6.70;;;;;;;-2.73;75.85;98601.84;4934394;29;20510;-43
2023/12/03 11:11:46;;;;;;;14.77;5.38;;;;;;;-2.54;75.76;98636.59;4917290;29;20463;-42
2023/12/03 11:14:15;;;;;;;13.43;5.85;;;;;;;-2.55;75.96;98642.53;4928717;29;20507;-42
2023/12/03 11:17:02;;;;;;;17.00;6.25;;;;;;;-2.53;76.06;98653.56;4917007;29;20048;-41
2023/12/03 11:19:29;;;;;;;14.23;6.65;;;;;;;-2.82;76.13;98612.81;4918500;29;20094;-44
2023/12/03 11:22:01;;;;;;;16.23;6.15;;;;;;;-2.62;76.51;98639.13;4933461;29;20066;-42